Executive Decision — CFK9267 — position and weather

sailwx.info

Track history (hours):
 
Tides and Currents Weather Stations Pressure Air Temp Water Temp Dewpoint Dewpoint Depression Visibility Wind Speed Wind Dir Waves Ship Positions

Executive Decision

Last reported at 2017-Apr-22 21:20 UTC. Time now 2017-Apr-28 17:59 UTC.
Position N 33°55' W 119°00'.

Length 14 m.

Type: Pleasure craft. MMSI: 316015863.

Date/timePositionNaut miles runAvg speedWind from/ knotsBaromVisibWave heightAir tempDewpointWater temp
2017-Apr-22 21:20N 33°55' W 119°00'3 9.5
2017-Apr-22 20:59N 33°55' W 119°04'5 9.5
2017-Apr-22 20:27N 33°55' W 119°10'4 8.7
2017-Apr-22 19:56N 33°55' W 119°16'5 8.6
2017-Apr-22 19:25N 33°56' W 119°21'4 8.5
2017-Apr-22 18:59N 33°55' W 119°26'22 8.7
2017-Apr-22 16:26N 33°54' W 119°52'4 8.9
2017-Apr-22 15:56N 33°53' W 119°58'16 8.2
2017-Apr-22 14:01N 33°59' W 120°15'4 8.0
2017-Apr-22 13:30N 34°02' W 120°18'3 1.6
2017-Apr-22 11:43N 34°03' W 120°21'0 0.0
2017-Apr-22 10:19N 34°03' W 120°21'0 0.1
2017-Apr-22 09:49N 34°03' W 120°21'0 0.0
2017-Apr-22 09:19N 34°03' W 120°21'0 0.0
2017-Apr-22 08:55N 34°03' W 120°21'0 0.0
2017-Apr-22 08:28N 34°03' W 120°21'0 0.0
2017-Apr-22 07:58N 34°03' W 120°21'0 0.0
2017-Apr-22 07:28N 34°03' W 120°21'0 0.0
2017-Apr-22 06:58N 34°03' W 120°21'0 0.0
2017-Apr-22 06:28N 34°03' W 120°21'0 0.1
2017-Apr-22 05:58N 34°03' W 120°21'0 0.1
2017-Apr-22 05:10N 34°03' W 120°21'0 0.0
2017-Apr-22 04:37N 34°03' W 120°21'0 0.0
2017-Apr-22 04:22N 34°03' W 120°21'0 0.0
2017-Apr-22 03:58N 34°03' W 120°21'0 0.0
2017-Apr-22 02:37N 34°03' W 120°21'0 0.0
2017-Apr-22 02:19N 34°03' W 120°21'0 0.0
2017-Apr-22 01:55N 34°03' W 120°21'0 0.0
2017-Apr-22 01:28N 34°03' W 120°21'0 0.0
2017-Apr-22 00:58N 34°03' W 120°21'0 0.1
2017-Apr-22 00:28N 34°03' W 120°21'0 0.0
2017-Apr-21 21:27N 34°03' W 120°22'1 1.4
2017-Apr-21 20:59N 34°04' W 120°21'4 7.5
2017-Apr-21 20:29N 34°06' W 120°17'3 6.2
2017-Apr-21 19:59N 34°07' W 120°14'3 6.2
2017-Apr-21 19:30N 34°09' W 120°11'9 6.5
2017-Apr-21 18:03N 34°14' W 120°01'0 7.1
2017-Apr-21 18:00N 34°14' W 120°01'3 6.6
2017-Apr-21 17:29N 34°16' W 119°57'4 6.6
2017-Apr-21 16:55N 34°18' W 119°53'5 6.5
2017-Apr-21 16:09N 34°20' W 119°48'2 6.8
2017-Apr-21 15:51N 34°21' W 119°46'3 6.8
2017-Apr-21 15:22N 34°23' W 119°43'2 0.0
2017-Apr-19 12:13N 34°24' W 119°42'0 0.0
2017-Apr-19 09:24N 34°24' W 119°42'0 0.0
2017-Apr-18 22:18N 34°24' W 119°42'0 0.2
2017-Apr-18 21:51N 34°24' W 119°42'6 5.2
2017-Apr-18 20:36N 34°21' W 119°35'1 6.4
2017-Apr-18 20:30N 34°21' W 119°34'5 6.6
2017-Apr-18 19:43N 34°18' W 119°29'2 6.5
2017-Apr-18 19:27N 34°17' W 119°27'3 6.6
2017-Apr-18 18:58N 34°15' W 119°24'5 6.6
2017-Apr-18 18:16N 34°12' W 119°19'2 6.8
2017-Apr-18 17:59N 34°11' W 119°18'3 6.6
2017-Apr-18 17:29N 34°09' W 119°14'1 0.8
2017-Apr-18 15:50N 34°10' W 119°13'0 0.0
2017-Apr-18 13:08N 34°10' W 119°13'0 0.0
2017-Apr-18 12:47N 34°10' W 119°13'0 0.0
2017-Apr-18 12:29N 34°10' W 119°13'0 0.1
2017-Apr-18 12:00N 34°10' W 119°13'0 0.1
2017-Apr-18 11:28N 34°10' W 119°13'0 0.1
2017-Apr-18 10:45N 34°10' W 119°13'0 0.0
2017-Apr-18 10:15N 34°10' W 119°13'0 0.0
2017-Apr-18 09:57N 34°10' W 119°13'0 0.0
2017-Apr-18 09:29N 34°10' W 119°13'0 0.1
2017-Apr-18 08:59N 34°10' W 119°13'0 0.1
2017-Apr-18 08:25N 34°10' W 119°13'0 0.1
2017-Apr-18 07:59N 34°10' W 119°13'0 0.1
2017-Apr-18 07:28N 34°10' W 119°13'0 0.0
2017-Apr-18 06:56N 34°10' W 119°13'0 0.0
2017-Apr-18 06:27N 34°10' W 119°13'0 0.0
2017-Apr-18 05:58N 34°10' W 119°13'0 0.0
2017-Apr-18 05:28N 34°10' W 119°13'0 0.0
2017-Apr-18 04:57N 34°10' W 119°13'0 0.0
2017-Apr-18 04:16N 34°10' W 119°13'0 0.0
2017-Apr-18 03:58N 34°10' W 119°13'0 0.0
2017-Apr-18 03:30N 34°10' W 119°13'0 0.1
2017-Apr-18 02:47N 34°10' W 119°13'0 0.1
2017-Apr-18 02:24N 34°10' W 119°13'0 0.1
2017-Apr-18 01:57N 34°10' W 119°13'0 0.1
2017-Apr-18 01:28N 34°10' W 119°13'1 1.4
2017-Apr-18 00:58N 34°10' W 119°13'1 2.3
2017-Apr-18 00:28N 34°09' W 119°13'5 8.6
2017-Apr-17 23:52N 34°05' W 119°08'2 6.0
2017-Apr-17 23:30N 34°04' W 119°06'3 6.3
2017-Apr-17 22:57N 34°03' W 119°02'  
Track history (hours):
 
Tides and Currents Weather Stations Pressure Air Temp Water Temp Dewpoint Dewpoint Depression Visibility Wind Speed Wind Dir Waves Ship Positions

Executive Decision

Last reported at 2017-Apr-22 21:20 UTC. Time now 2017-Apr-28 17:59 UTC.
Position N 33°55' W 119°00'.

Length 14 m.

Type: Pleasure craft. MMSI: 316015863.

Date/timePositionNaut miles runAvg speedWind from/ knotsBaromVisibWave heightAir tempDewpointWater temp
2017-Apr-22 21:20N 33°55' W 119°00'3 9.5
2017-Apr-22 20:59N 33°55' W 119°04'5 9.5
2017-Apr-22 20:27N 33°55' W 119°10'4 8.7
2017-Apr-22 19:56N 33°55' W 119°16'5 8.6
2017-Apr-22 19:25N 33°56' W 119°21'4 8.5
2017-Apr-22 18:59N 33°55' W 119°26'22 8.7
2017-Apr-22 16:26N 33°54' W 119°52'4 8.9
2017-Apr-22 15:56N 33°53' W 119°58'16 8.2
2017-Apr-22 14:01N 33°59' W 120°15'4 8.0
2017-Apr-22 13:30N 34°02' W 120°18'3 1.6
2017-Apr-22 11:43N 34°03' W 120°21'0 0.0
2017-Apr-22 10:19N 34°03' W 120°21'0 0.1
2017-Apr-22 09:49N 34°03' W 120°21'0 0.0
2017-Apr-22 09:19N 34°03' W 120°21'0 0.0
2017-Apr-22 08:55N 34°03' W 120°21'0 0.0
2017-Apr-22 08:28N 34°03' W 120°21'0 0.0
2017-Apr-22 07:58N 34°03' W 120°21'0 0.0
2017-Apr-22 07:28N 34°03' W 120°21'0 0.0
2017-Apr-22 06:58N 34°03' W 120°21'0 0.0
2017-Apr-22 06:28N 34°03' W 120°21'0 0.1
2017-Apr-22 05:58N 34°03' W 120°21'0 0.1
2017-Apr-22 05:10N 34°03' W 120°21'0 0.0
2017-Apr-22 04:37N 34°03' W 120°21'0 0.0
2017-Apr-22 04:22N 34°03' W 120°21'0 0.0
2017-Apr-22 03:58N 34°03' W 120°21'0 0.0
2017-Apr-22 02:37N 34°03' W 120°21'0 0.0
2017-Apr-22 02:19N 34°03' W 120°21'0 0.0
2017-Apr-22 01:55N 34°03' W 120°21'0 0.0
2017-Apr-22 01:28N 34°03' W 120°21'0 0.0
2017-Apr-22 00:58N 34°03' W 120°21'0 0.1
2017-Apr-22 00:28N 34°03' W 120°21'0 0.0
2017-Apr-21 21:27N 34°03' W 120°22'1 1.4
2017-Apr-21 20:59N 34°04' W 120°21'4 7.5
2017-Apr-21 20:29N 34°06' W 120°17'3 6.2
2017-Apr-21 19:59N 34°07' W 120°14'3 6.2
2017-Apr-21 19:30N 34°09' W 120°11'9 6.5
2017-Apr-21 18:03N 34°14' W 120°01'0 7.1
2017-Apr-21 18:00N 34°14' W 120°01'3 6.6
2017-Apr-21 17:29N 34°16' W 119°57'4 6.6
2017-Apr-21 16:55N 34°18' W 119°53'5 6.5
2017-Apr-21 16:09N 34°20' W 119°48'2 6.8
2017-Apr-21 15:51N 34°21' W 119°46'3 6.8
2017-Apr-21 15:22N 34°23' W 119°43'2 0.0
2017-Apr-19 12:13N 34°24' W 119°42'0 0.0
2017-Apr-19 09:24N 34°24' W 119°42'0 0.0
2017-Apr-18 22:18N 34°24' W 119°42'0 0.2
2017-Apr-18 21:51N 34°24' W 119°42'6 5.2
2017-Apr-18 20:36N 34°21' W 119°35'1 6.4
2017-Apr-18 20:30N 34°21' W 119°34'5 6.6
2017-Apr-18 19:43N 34°18' W 119°29'2 6.5
2017-Apr-18 19:27N 34°17' W 119°27'3 6.6
2017-Apr-18 18:58N 34°15' W 119°24'5 6.6
2017-Apr-18 18:16N 34°12' W 119°19'2 6.8
2017-Apr-18 17:59N 34°11' W 119°18'3 6.6
2017-Apr-18 17:29N 34°09' W 119°14'1 0.8
2017-Apr-18 15:50N 34°10' W 119°13'0 0.0
2017-Apr-18 13:08N 34°10' W 119°13'0 0.0
2017-Apr-18 12:47N 34°10' W 119°13'0 0.0
2017-Apr-18 12:29N 34°10' W 119°13'0 0.1
2017-Apr-18 12:00N 34°10' W 119°13'0 0.1
2017-Apr-18 11:28N 34°10' W 119°13'0 0.1
2017-Apr-18 10:45N 34°10' W 119°13'0 0.0
2017-Apr-18 10:15N 34°10' W 119°13'0 0.0
2017-Apr-18 09:57N 34°10' W 119°13'0 0.0
2017-Apr-18 09:29N 34°10' W 119°13'0 0.1
2017-Apr-18 08:59N 34°10' W 119°13'0 0.1
2017-Apr-18 08:25N 34°10' W 119°13'0 0.1
2017-Apr-18 07:59N 34°10' W 119°13'0 0.1
2017-Apr-18 07:28N 34°10' W 119°13'0 0.0
2017-Apr-18 06:56N 34°10' W 119°13'0 0.0
2017-Apr-18 06:27N 34°10' W 119°13'0 0.0
2017-Apr-18 05:58N 34°10' W 119°13'0 0.0
2017-Apr-18 05:28N 34°10' W 119°13'0 0.0
2017-Apr-18 04:57N 34°10' W 119°13'0 0.0
2017-Apr-18 04:16N 34°10' W 119°13'0 0.0
2017-Apr-18 03:58N 34°10' W 119°13'0 0.0
2017-Apr-18 03:30N 34°10' W 119°13'0 0.1
2017-Apr-18 02:47N 34°10' W 119°13'0 0.1
2017-Apr-18 02:24N 34°10' W 119°13'0 0.1
2017-Apr-18 01:57N 34°10' W 119°13'0 0.1
2017-Apr-18 01:28N 34°10' W 119°13'1 1.4
2017-Apr-18 00:58N 34°10' W 119°13'1 2.3
2017-Apr-18 00:28N 34°09' W 119°13'5 8.6
2017-Apr-17 23:52N 34°05' W 119°08'2 6.0
2017-Apr-17 23:30N 34°04' W 119°06'3 6.3
2017-Apr-17 22:57N 34°03' W 119°02'  

Dump ship's entire track history